sensor_id;sensor_type;location;lat;lon;timestamp;temperature;humidity
74416;SHT31;62850;42.428;25.618;2023-05-08T00:02:23;14.45;45.89
74416;SHT31;62850;42.428;25.618;2023-05-08T00:04:48;14.48;46.25
74416;SHT31;62850;42.428;25.618;2023-05-08T00:07:14;14.53;46.11
74416;SHT31;62850;42.428;25.618;2023-05-08T00:09:39;14.48;46.47
74416;SHT31;62850;42.428;25.618;2023-05-08T00:12:05;14.40;46.45
74416;SHT31;62850;42.428;25.618;2023-05-08T00:14:30;14.30;46.70
74416;SHT31;62850;42.428;25.618;2023-05-08T00:16:56;14.26;46.88
74416;SHT31;62850;42.428;25.618;2023-05-08T00:19:21;14.16;47.99
74416;SHT31;62850;42.428;25.618;2023-05-08T00:21:46;14.09;48.19
74416;SHT31;62850;42.428;25.618;2023-05-08T00:24:12;14.10;47.53
74416;SHT31;62850;42.428;25.618;2023-05-08T00:26:37;13.99;47.52
74416;SHT31;62850;42.428;25.618;2023-05-08T00:29:03;13.89;48.30
74416;SHT31;62850;42.428;25.618;2023-05-08T00:31:29;13.85;48.42
74416;SHT31;62850;42.428;25.618;2023-05-08T00:33:54;13.79;48.15
74416;SHT31;62850;42.428;25.618;2023-05-08T00:36:20;13.76;49.24
74416;SHT31;62850;42.428;25.618;2023-05-08T00:38:45;13.73;49.08
74416;SHT31;62850;42.428;25.618;2023-05-08T00:41:11;13.71;49.34
74416;SHT31;62850;42.428;25.618;2023-05-08T00:43:37;13.65;49.60
74416;SHT31;62850;42.428;25.618;2023-05-08T00:46:04;13.71;49.88
74416;SHT31;62850;42.428;25.618;2023-05-08T00:48:31;13.66;49.81
74416;SHT31;62850;42.428;25.618;2023-05-08T00:50:59;13.65;49.51
74416;SHT31;62850;42.428;25.618;2023-05-08T00:53:26;13.62;49.71
74416;SHT31;62850;42.428;25.618;2023-05-08T00:55:52;13.57;49.65
74416;SHT31;62850;42.428;25.618;2023-05-08T00:58:19;13.54;49.85
74416;SHT31;62850;42.428;25.618;2023-05-08T01:00:45;13.47;50.13
74416;SHT31;62850;42.428;25.618;2023-05-08T01:03:11;13.45;50.09
74416;SHT31;62850;42.428;25.618;2023-05-08T01:05:37;13.34;50.80
74416;SHT31;62850;42.428;25.618;2023-05-08T01:08:03;13.31;50.64
74416;SHT31;62850;42.428;25.618;2023-05-08T01:11:10;13.31;50.94
74416;SHT31;62850;42.428;25.618;2023-05-08T01:13:49;13.30;50.68
74416;SHT31;62850;42.428;25.618;2023-05-08T01:16:22;13.34;50.14
74416;SHT31;62850;42.428;25.618;2023-05-08T01:19:00;13.40;50.51
74416;SHT31;62850;42.428;25.618;2023-05-08T01:21:44;13.41;50.56
74416;SHT31;62850;42.428;25.618;2023-05-08T01:32:42;13.40;52.10
74416;SHT31;62850;42.428;25.618;2023-05-08T01:35:20;13.47;51.83
74416;SHT31;62850;42.428;25.618;2023-05-08T01:38:21;13.35;51.71
74416;SHT31;62850;42.428;25.618;2023-05-08T01:41:00;13.21;52.63
74416;SHT31;62850;42.428;25.618;2023-05-08T01:43:37;13.15;52.85
74416;SHT31;62850;42.428;25.618;2023-05-08T01:46:09;13.10;53.05
74416;SHT31;62850;42.428;25.618;2023-05-08T01:49:04;13.07;52.68
74416;SHT31;62850;42.428;25.618;2023-05-08T01:51:32;13.10;53.45
74416;SHT31;62850;42.428;25.618;2023-05-08T01:54:04;13.07;53.45
74416;SHT31;62850;42.428;25.618;2023-05-08T01:56:30;13.08;53.88
74416;SHT31;62850;42.428;25.618;2023-05-08T01:58:58;13.06;53.82
74416;SHT31;62850;42.428;25.618;2023-05-08T02:01:24;13.08;53.63
74416;SHT31;62850;42.428;25.618;2023-05-08T02:03:51;13.00;54.00
74416;SHT31;62850;42.428;25.618;2023-05-08T02:06:19;12.94;54.22
74416;SHT31;62850;42.428;25.618;2023-05-08T02:08:47;12.99;54.63
74416;SHT31;62850;42.428;25.618;2023-05-08T02:11:14;12.97;54.60
74416;SHT31;62850;42.428;25.618;2023-05-08T02:13:41;12.93;55.13
74416;SHT31;62850;42.428;25.618;2023-05-08T02:16:09;12.93;55.10
74416;SHT31;62850;42.428;25.618;2023-05-08T02:18:37;12.84;55.50
74416;SHT31;62850;42.428;25.618;2023-05-08T02:21:04;12.70;55.84
74416;SHT31;62850;42.428;25.618;2023-05-08T02:23:32;12.76;55.74
74416;SHT31;62850;42.428;25.618;2023-05-08T02:25:59;12.65;55.94
74416;SHT31;62850;42.428;25.618;2023-05-08T02:28:26;12.67;56.08
74416;SHT31;62850;42.428;25.618;2023-05-08T02:30:55;12.56;56.61
74416;SHT31;62850;42.428;25.618;2023-05-08T02:33:22;12.49;55.89
74416;SHT31;62850;42.428;25.618;2023-05-08T02:35:49;12.45;56.70
74416;SHT31;62850;42.428;25.618;2023-05-08T02:38:18;12.38;56.74
74416;SHT31;62850;42.428;25.618;2023-05-08T02:40:47;12.38;57.19
74416;SHT31;62850;42.428;25.618;2023-05-08T02:43:13;12.31;57.08
74416;SHT31;62850;42.428;25.618;2023-05-08T02:54:14;12.24;56.59
74416;SHT31;62850;42.428;25.618;2023-05-08T02:59:39;12.18;56.52
74416;SHT31;62850;42.428;25.618;2023-05-08T03:02:14;12.21;55.93
74416;SHT31;62850;42.428;25.618;2023-05-08T03:04:52;12.18;56.37
74416;SHT31;62850;42.428;25.618;2023-05-08T03:07:22;12.11;56.90
74416;SHT31;62850;42.428;25.618;2023-05-08T03:09:55;12.08;56.26
74416;SHT31;62850;42.428;25.618;2023-05-08T03:12:25;12.04;56.57
74416;SHT31;62850;42.428;25.618;2023-05-08T03:14:58;12.08;55.90
74416;SHT31;62850;42.428;25.618;2023-05-08T03:17:26;12.08;56.26
74416;SHT31;62850;42.428;25.618;2023-05-08T03:19:55;12.07;56.41
74416;SHT31;62850;42.428;25.618;2023-05-08T03:22:23;12.07;56.64
74416;SHT31;62850;42.428;25.618;2023-05-08T03:24:50;11.98;56.36
74416;SHT31;62850;42.428;25.618;2023-05-08T03:27:18;12.01;56.33
74416;SHT31;62850;42.428;25.618;2023-05-08T03:29:45;11.97;56.87
74416;SHT31;62850;42.428;25.618;2023-05-08T03:32:12;12.01;57.01
74416;SHT31;62850;42.428;25.618;2023-05-08T03:34:38;12.05;57.04
74416;SHT31;62850;42.428;25.618;2023-05-08T03:37:04;12.05;57.21
74416;SHT31;62850;42.428;25.618;2023-05-08T03:39:30;12.14;57.62
74416;SHT31;62850;42.428;25.618;2023-05-08T03:41:55;12.20;57.58
74416;SHT31;62850;42.428;25.618;2023-05-08T03:44:22;12.31;57.16
74416;SHT31;62850;42.428;25.618;2023-05-08T03:46:49;12.35;57.29
74416;SHT31;62850;42.428;25.618;2023-05-08T03:49:16;12.38;57.40
74416;SHT31;62850;42.428;25.618;2023-05-08T03:51:42;12.38;57.42
74416;SHT31;62850;42.428;25.618;2023-05-08T03:54:08;12.42;57.04
74416;SHT31;62850;42.428;25.618;2023-05-08T03:56:34;12.38;57.25
74416;SHT31;62850;42.428;25.618;2023-05-08T04:02:06;12.39;57.28
74416;SHT31;62850;42.428;25.618;2023-05-08T04:04:40;12.50;56.97
74416;SHT31;62850;42.428;25.618;2023-05-08T04:07:30;12.50;56.66
74416;SHT31;62850;42.428;25.618;2023-05-08T04:10:13;12.56;56.92
74416;SHT31;62850;42.428;25.618;2023-05-08T04:13:07;12.66;56.67
74416;SHT31;62850;42.428;25.618;2023-05-08T04:15:43;12.75;56.47
74416;SHT31;62850;42.428;25.618;2023-05-08T04:18:11;12.83;56.94
74416;SHT31;62850;42.428;25.618;2023-05-08T04:20:40;12.87;57.17
74416;SHT31;62850;42.428;25.618;2023-05-08T04:23:07;12.87;56.21
74416;SHT31;62850;42.428;25.618;2023-05-08T04:25:35;12.99;56.33
74416;SHT31;62850;42.428;25.618;2023-05-08T04:28:02;13.04;55.57
74416;SHT31;62850;42.428;25.618;2023-05-08T04:30:28;13.13;55.38
74416;SHT31;62850;42.428;25.618;2023-05-08T04:32:56;13.23;54.84
74416;SHT31;62850;42.428;25.618;2023-05-08T04:35:22;13.34;54.63
74416;SHT31;62850;42.428;25.618;2023-05-08T04:37:47;13.48;53.48
74416;SHT31;62850;42.428;25.618;2023-05-08T04:40:13;13.57;52.74
74416;SHT31;62850;42.428;25.618;2023-05-08T04:42:38;13.64;52.01
74416;SHT31;62850;42.428;25.618;2023-05-08T04:45:07;13.79;52.82
74416;SHT31;62850;42.428;25.618;2023-05-08T04:47:33;13.89;52.19
74416;SHT31;62850;42.428;25.618;2023-05-08T04:49:59;13.95;51.96
74416;SHT31;62850;42.428;25.618;2023-05-08T04:52:25;13.95;53.05
74416;SHT31;62850;42.428;25.618;2023-05-08T04:54:50;14.03;52.13
74416;SHT31;62850;42.428;25.618;2023-05-08T04:57:16;13.99;52.31
74416;SHT31;62850;42.428;25.618;2023-05-08T04:59:41;14.13;51.05
74416;SHT31;62850;42.428;25.618;2023-05-08T05:02:07;14.17;51.33
74416;SHT31;62850;42.428;25.618;2023-05-08T05:04:34;14.20;51.38
74416;SHT31;62850;42.428;25.618;2023-05-08T05:07:01;14.29;51.48
74416;SHT31;62850;42.428;25.618;2023-05-08T05:09:27;14.38;51.22
74416;SHT31;62850;42.428;25.618;2023-05-08T05:11:52;14.50;51.52
74416;SHT31;62850;42.428;25.618;2023-05-08T05:14:18;14.56;53.15
74416;SHT31;62850;42.428;25.618;2023-05-08T05:16:43;14.60;53.87
74416;SHT31;62850;42.428;25.618;2023-05-08T05:19:09;14.57;53.26
74416;SHT31;62850;42.428;25.618;2023-05-08T05:21:34;14.60;53.19
74416;SHT31;62850;42.428;25.618;2023-05-08T05:24:02;14.68;53.49
74416;SHT31;62850;42.428;25.618;2023-05-08T05:26:28;14.78;51.21
74416;SHT31;62850;42.428;25.618;2023-05-08T05:28:53;14.91;51.69
74416;SHT31;62850;42.428;25.618;2023-05-08T05:31:18;14.95;52.97
74416;SHT31;62850;42.428;25.618;2023-05-08T05:33:44;14.98;51.88
74416;SHT31;62850;42.428;25.618;2023-05-08T05:36:11;15.05;49.59
74416;SHT31;62850;42.428;25.618;2023-05-08T05:38:36;15.06;51.57
74416;SHT31;62850;42.428;25.618;2023-05-08T05:41:02;15.13;50.61
74416;SHT31;62850;42.428;25.618;2023-05-08T05:43:27;15.21;47.52
74416;SHT31;62850;42.428;25.618;2023-05-08T05:45:53;15.22;49.19
74416;SHT31;62850;42.428;25.618;2023-05-08T05:48:20;15.26;48.63
74416;SHT31;62850;42.428;25.618;2023-05-08T05:50:46;15.25;48.65
74416;SHT31;62850;42.428;25.618;2023-05-08T05:53:11;15.28;48.03
74416;SHT31;62850;42.428;25.618;2023-05-08T05:55:37;15.36;49.59
74416;SHT31;62850;42.428;25.618;2023-05-08T05:58:03;15.36;48.98
74416;SHT31;62850;42.428;25.618;2023-05-08T06:00:28;15.36;49.27
74416;SHT31;62850;42.428;25.618;2023-05-08T06:02:55;15.39;49.45
74416;SHT31;62850;42.428;25.618;2023-05-08T06:05:21;15.43;49.77
74416;SHT31;62850;42.428;25.618;2023-05-08T06:07:47;15.54;48.85
74416;SHT31;62850;42.428;25.618;2023-05-08T06:10:13;15.63;47.34
74416;SHT31;62850;42.428;25.618;2023-05-08T06:12:39;15.74;47.38
74416;SHT31;62850;42.428;25.618;2023-05-08T06:15:05;15.80;47.59
74416;SHT31;62850;42.428;25.618;2023-05-08T06:17:31;15.91;48.68
74416;SHT31;62850;42.428;25.618;2023-05-08T06:19:56;15.98;47.51
74416;SHT31;62850;42.428;25.618;2023-05-08T06:22:22;16.07;45.51
74416;SHT31;62850;42.428;25.618;2023-05-08T06:24:51;16.22;47.05
74416;SHT31;62850;42.428;25.618;2023-05-08T06:27:18;16.31;46.80
74416;SHT31;62850;42.428;25.618;2023-05-08T06:29:48;16.35;46.17
74416;SHT31;62850;42.428;25.618;2023-05-08T06:32:20;16.41;45.94
74416;SHT31;62850;42.428;25.618;2023-05-08T06:34:46;16.47;44.40
74416;SHT31;62850;42.428;25.618;2023-05-08T06:37:11;16.55;44.54
74416;SHT31;62850;42.428;25.618;2023-05-08T06:39:37;16.62;43.58
74416;SHT31;62850;42.428;25.618;2023-05-08T06:42:02;16.66;43.54
74416;SHT31;62850;42.428;25.618;2023-05-08T06:44:31;16.75;42.21
74416;SHT31;62850;42.428;25.618;2023-05-08T06:46:56;16.81;42.87
74416;SHT31;62850;42.428;25.618;2023-05-08T06:49:22;16.96;41.28
74416;SHT31;62850;42.428;25.618;2023-05-08T06:51:47;17.08;41.71
74416;SHT31;62850;42.428;25.618;2023-05-08T06:54:13;17.17;41.89
74416;SHT31;62850;42.428;25.618;2023-05-08T06:56:38;17.24;41.42
74416;SHT31;62850;42.428;25.618;2023-05-08T06:59:04;17.16;38.13
74416;SHT31;62850;42.428;25.618;2023-05-08T07:01:30;17.14;38.56
74416;SHT31;62850;42.428;25.618;2023-05-08T07:03:55;17.23;36.52
74416;SHT31;62850;42.428;25.618;2023-05-08T07:06:20;17.35;38.14
74416;SHT31;62850;42.428;25.618;2023-05-08T07:08:46;17.48;36.84
74416;SHT31;62850;42.428;25.618;2023-05-08T07:11:11;17.58;38.27
74416;SHT31;62850;42.428;25.618;2023-05-08T07:13:37;17.69;39.11
74416;SHT31;62850;42.428;25.618;2023-05-08T07:16:08;17.78;37.86
74416;SHT31;62850;42.428;25.618;2023-05-08T07:18:33;17.89;37.55
74416;SHT31;62850;42.428;25.618;2023-05-08T07:20:59;17.85;37.51
74416;SHT31;62850;42.428;25.618;2023-05-08T07:23:24;17.96;37.77
74416;SHT31;62850;42.428;25.618;2023-05-08T07:25:51;18.17;39.59
74416;SHT31;62850;42.428;25.618;2023-05-08T07:28:17;18.22;38.60
74416;SHT31;62850;42.428;25.618;2023-05-08T07:30:42;18.32;38.58
74416;SHT31;62850;42.428;25.618;2023-05-08T07:33:08;18.44;35.98
74416;SHT31;62850;42.428;25.618;2023-05-08T07:35:33;18.64;37.03
74416;SHT31;62850;42.428;25.618;2023-05-08T07:37:59;18.69;39.79
74416;SHT31;62850;42.428;25.618;2023-05-08T07:40:24;18.85;36.45
74416;SHT31;62850;42.428;25.618;2023-05-08T07:42:50;19.19;35.28
74416;SHT31;62850;42.428;25.618;2023-05-08T07:45:15;19.46;35.79
74416;SHT31;62850;42.428;25.618;2023-05-08T07:47:48;19.83;35.68
74416;SHT31;62850;42.428;25.618;2023-05-08T07:50:14;20.18;36.18
74416;SHT31;62850;42.428;25.618;2023-05-08T07:52:40;20.57;36.24
74416;SHT31;62850;42.428;25.618;2023-05-08T07:55:06;20.77;36.38
74416;SHT31;62850;42.428;25.618;2023-05-08T07:57:41;20.84;36.01
74416;SHT31;62850;42.428;25.618;2023-05-08T08:00:09;21.06;34.50
74416;SHT31;62850;42.428;25.618;2023-05-08T08:02:34;21.03;34.42
74416;SHT31;62850;42.428;25.618;2023-05-08T08:05:00;21.23;37.28
74416;SHT31;62850;42.428;25.618;2023-05-08T08:07:25;21.24;34.37
74416;SHT31;62850;42.428;25.618;2023-05-08T08:09:51;21.42;38.68
74416;SHT31;62850;42.428;25.618;2023-05-08T08:12:17;21.55;34.76
74416;SHT31;62850;42.428;25.618;2023-05-08T08:14:42;21.48;34.59
74416;SHT31;62850;42.428;25.618;2023-05-08T08:17:08;21.75;35.39
74416;SHT31;62850;42.428;25.618;2023-05-08T08:19:33;21.93;34.29
74416;SHT31;62850;42.428;25.618;2023-05-08T08:21:59;21.90;34.47
74416;SHT31;62850;42.428;25.618;2023-05-08T08:24:24;21.99;35.70
74416;SHT31;62850;42.428;25.618;2023-05-08T08:26:50;21.96;34.86
74416;SHT31;62850;42.428;25.618;2023-05-08T08:29:16;21.75;34.78
74416;SHT31;62850;42.428;25.618;2023-05-08T08:31:41;21.93;33.90
74416;SHT31;62850;42.428;25.618;2023-05-08T08:34:07;22.09;33.71
74416;SHT31;62850;42.428;25.618;2023-05-08T08:36:32;22.19;33.61
74416;SHT31;62850;42.428;25.618;2023-05-08T08:38:58;22.00;33.86
74416;SHT31;62850;42.428;25.618;2023-05-08T08:41:24;22.03;33.47
74416;SHT31;62850;42.428;25.618;2023-05-08T08:43:52;21.83;33.92
74416;SHT31;62850;42.428;25.618;2023-05-08T08:46:19;22.03;34.74
74416;SHT31;62850;42.428;25.618;2023-05-08T08:48:49;22.36;34.80
74416;SHT31;62850;42.428;25.618;2023-05-08T08:51:24;22.50;34.68
74416;SHT31;62850;42.428;25.618;2023-05-08T08:54:13;22.64;34.88
74416;SHT31;62850;42.428;25.618;2023-05-08T08:56:43;22.84;34.53
74416;SHT31;62850;42.428;25.618;2023-05-08T08:59:11;22.78;35.49
74416;SHT31;62850;42.428;25.618;2023-05-08T09:01:43;22.90;34.16
74416;SHT31;62850;42.428;25.618;2023-05-08T09:04:08;23.07;34.65
74416;SHT31;62850;42.428;25.618;2023-05-08T09:06:36;23.23;35.09
74416;SHT31;62850;42.428;25.618;2023-05-08T09:09:02;23.32;34.60
74416;SHT31;62850;42.428;25.618;2023-05-08T09:11:27;23.08;34.85
74416;SHT31;62850;42.428;25.618;2023-05-08T09:13:56;22.87;34.89
74416;SHT31;62850;42.428;25.618;2023-05-08T09:16:23;23.05;35.35
74416;SHT31;62850;42.428;25.618;2023-05-08T09:18:49;22.91;35.28
74416;SHT31;62850;42.428;25.618;2023-05-08T09:21:14;23.08;35.27
74416;SHT31;62850;42.428;25.618;2023-05-08T09:26:41;23.53;35.42
74416;SHT31;62850;42.428;25.618;2023-05-08T09:29:08;23.83;34.62
74416;SHT31;62850;42.428;25.618;2023-05-08T09:31:39;23.92;34.94
74416;SHT31;62850;42.428;25.618;2023-05-08T09:34:21;23.93;35.41
74416;SHT31;62850;42.428;25.618;2023-05-08T09:36:49;24.00;35.32
74416;SHT31;62850;42.428;25.618;2023-05-08T09:39:21;24.07;35.17
74416;SHT31;62850;42.428;25.618;2023-05-08T09:42:03;23.50;35.34
74416;SHT31;62850;42.428;25.618;2023-05-08T09:44:50;23.43;36.28
74416;SHT31;62850;42.428;25.618;2023-05-08T09:47:17;23.49;36.29
74416;SHT31;62850;42.428;25.618;2023-05-08T09:50:01;23.69;36.26
74416;SHT31;62850;42.428;25.618;2023-05-08T09:52:28;23.77;36.87
74416;SHT31;62850;42.428;25.618;2023-05-08T09:55:06;23.84;35.91
74416;SHT31;62850;42.428;25.618;2023-05-08T09:57:33;24.00;36.32
74416;SHT31;62850;42.428;25.618;2023-05-08T10:00:07;24.18;36.85
74416;SHT31;62850;42.428;25.618;2023-05-08T10:02:38;24.07;35.49
74416;SHT31;62850;42.428;25.618;2023-05-08T10:05:24;23.96;37.97
74416;SHT31;62850;42.428;25.618;2023-05-08T10:07:50;24.25;36.21
74416;SHT31;62850;42.428;25.618;2023-05-08T10:10:22;24.29;35.89
74416;SHT31;62850;42.428;25.618;2023-05-08T10:12:52;24.32;36.09
74416;SHT31;62850;42.428;25.618;2023-05-08T10:15:22;24.51;35.47
74416;SHT31;62850;42.428;25.618;2023-05-08T10:18:10;24.66;35.24
74416;SHT31;62850;42.428;25.618;2023-05-08T10:20:41;24.80;34.96
74416;SHT31;62850;42.428;25.618;2023-05-08T10:23:10;24.92;35.00
74416;SHT31;62850;42.428;25.618;2023-05-08T10:25:44;25.13;34.46
74416;SHT31;62850;42.428;25.618;2023-05-08T10:28:17;25.23;33.92
74416;SHT31;62850;42.428;25.618;2023-05-08T10:30:46;25.30;34.62
74416;SHT31;62850;42.428;25.618;2023-05-08T10:33:14;25.33;34.39
74416;SHT31;62850;42.428;25.618;2023-05-08T10:35:40;25.35;34.25
74416;SHT31;62850;42.428;25.618;2023-05-08T10:38:09;25.48;35.45
74416;SHT31;62850;42.428;25.618;2023-05-08T10:40:36;25.54;34.73
74416;SHT31;62850;42.428;25.618;2023-05-08T10:43:02;25.67;35.13
74416;SHT31;62850;42.428;25.618;2023-05-08T10:45:30;25.92;34.43
74416;SHT31;62850;42.428;25.618;2023-05-08T10:53:41;26.01;33.75
74416;SHT31;62850;42.428;25.618;2023-05-08T10:56:08;26.01;33.50
74416;SHT31;62850;42.428;25.618;2023-05-08T10:58:35;26.03;33.60
74416;SHT31;62850;42.428;25.618;2023-05-08T11:03:39;26.23;34.90
74416;SHT31;62850;42.428;25.618;2023-05-08T11:06:08;26.18;34.49
74416;SHT31;62850;42.428;25.618;2023-05-08T11:08:46;26.09;34.95
74416;SHT31;62850;42.428;25.618;2023-05-08T11:11:25;26.15;34.99
74416;SHT31;62850;42.428;25.618;2023-05-08T11:19:24;26.46;35.59
74416;SHT31;62850;42.428;25.618;2023-05-08T11:24:39;26.76;34.05
74416;SHT31;62850;42.428;25.618;2023-05-08T11:27:04;27.05;34.55
74416;SHT31;62850;42.428;25.618;2023-05-08T11:29:30;27.00;33.87
74416;SHT31;62850;42.428;25.618;2023-05-08T11:31:56;27.05;33.85
74416;SHT31;62850;42.428;25.618;2023-05-08T11:37:09;27.07;34.14
74416;SHT31;62850;42.428;25.618;2023-05-08T11:39:35;27.34;33.83
74416;SHT31;62850;42.428;25.618;2023-05-08T11:45:07;27.43;34.01
74416;SHT31;62850;42.428;25.618;2023-05-08T11:47:41;27.45;33.67
74416;SHT31;62850;42.428;25.618;2023-05-08T11:50:08;27.48;34.26
74416;SHT31;62850;42.428;25.618;2023-05-08T11:52:38;27.21;34.26
74416;SHT31;62850;42.428;25.618;2023-05-08T11:55:07;27.35;35.17
74416;SHT31;62850;42.428;25.618;2023-05-08T11:57:32;27.41;33.58
74416;SHT31;62850;42.428;25.618;2023-05-08T12:00:08;27.32;34.57
74416;SHT31;62850;42.428;25.618;2023-05-08T12:02:41;27.41;36.76
74416;SHT31;62850;42.428;25.618;2023-05-08T12:05:08;27.52;34.27
74416;SHT31;62850;42.428;25.618;2023-05-08T12:07:46;27.79;33.92
74416;SHT31;62850;42.428;25.618;2023-05-08T12:10:13;28.00;34.12
74416;SHT31;62850;42.428;25.618;2023-05-08T12:12:40;28.13;33.05
74416;SHT31;62850;42.428;25.618;2023-05-08T12:17:32;27.43;34.20
74416;SHT31;62850;42.428;25.618;2023-05-08T12:20:14;27.43;34.59
74416;SHT31;62850;42.428;25.618;2023-05-08T12:22:41;27.24;34.30
74416;SHT31;62850;42.428;25.618;2023-05-08T12:25:09;26.95;35.36
74416;SHT31;62850;42.428;25.618;2023-05-08T12:27:35;26.64;35.51
74416;SHT31;62850;42.428;25.618;2023-05-08T12:30:09;26.39;35.64
74416;SHT31;62850;42.428;25.618;2023-05-08T12:32:42;26.16;37.33
74416;SHT31;62850;42.428;25.618;2023-05-08T12:35:09;25.80;36.31
74416;SHT31;62850;42.428;25.618;2023-05-08T12:37:35;25.51;38.73
74416;SHT31;62850;42.428;25.618;2023-05-08T12:40:02;25.35;38.07
74416;SHT31;62850;42.428;25.618;2023-05-08T12:42:49;25.13;38.61
74416;SHT31;62850;42.428;25.618;2023-05-08T12:45:19;24.96;40.22
74416;SHT31;62850;42.428;25.618;2023-05-08T12:47:49;24.87;38.65
74416;SHT31;62850;42.428;25.618;2023-05-08T12:50:16;24.66;38.76
74416;SHT31;62850;42.428;25.618;2023-05-08T12:52:42;24.56;40.13
74416;SHT31;62850;42.428;25.618;2023-05-08T12:55:28;24.25;39.75
74416;SHT31;62850;42.428;25.618;2023-05-08T12:58:00;24.07;39.95
74416;SHT31;62850;42.428;25.618;2023-05-08T13:00:40;23.80;39.11
74416;SHT31;62850;42.428;25.618;2023-05-08T13:03:07;23.74;39.26
74416;SHT31;62850;42.428;25.618;2023-05-08T13:05:39;23.67;39.13
74416;SHT31;62850;42.428;25.618;2023-05-08T13:08:07;23.62;40.02
74416;SHT31;62850;42.428;25.618;2023-05-08T13:13:27;23.63;41.25
74416;SHT31;62850;42.428;25.618;2023-05-08T13:15:54;23.55;40.68
74416;SHT31;62850;42.428;25.618;2023-05-08T13:18:23;23.47;41.50
74416;SHT31;62850;42.428;25.618;2023-05-08T13:20:48;23.36;42.56
74416;SHT31;62850;42.428;25.618;2023-05-08T13:23:14;23.33;43.03
74416;SHT31;62850;42.428;25.618;2023-05-08T13:25:40;23.22;42.95
74416;SHT31;62850;42.428;25.618;2023-05-08T13:28:07;23.20;42.82
74416;SHT31;62850;42.428;25.618;2023-05-08T13:30:34;23.07;42.95
74416;SHT31;62850;42.428;25.618;2023-05-08T13:33:01;22.63;43.46
74416;SHT31;62850;42.428;25.618;2023-05-08T13:35:27;22.05;48.68
74416;SHT31;62850;42.428;25.618;2023-05-08T13:37:54;21.34;51.85
74416;SHT31;62850;42.428;25.618;2023-05-08T13:40:19;20.83;54.05
74416;SHT31;62850;42.428;25.618;2023-05-08T13:42:45;20.45;55.52
74416;SHT31;62850;42.428;25.618;2023-05-08T13:45:11;20.12;57.46
74416;SHT31;62850;42.428;25.618;2023-05-08T13:47:39;19.87;58.57
74416;SHT31;62850;42.428;25.618;2023-05-08T13:50:09;19.63;59.54
74416;SHT31;62850;42.428;25.618;2023-05-08T13:52:39;19.27;61.29
74416;SHT31;62850;42.428;25.618;2023-05-08T13:55:06;19.22;62.54
74416;SHT31;62850;42.428;25.618;2023-05-08T13:57:32;18.99;64.39
74416;SHT31;62850;42.428;25.618;2023-05-08T13:59:58;18.75;66.48
74416;SHT31;62850;42.428;25.618;2023-05-08T14:02:24;18.65;68.14
74416;SHT31;62850;42.428;25.618;2023-05-08T14:04:49;18.54;68.80
74416;SHT31;62850;42.428;25.618;2023-05-08T14:07:15;18.29;69.73
74416;SHT31;62850;42.428;25.618;2023-05-08T14:09:42;18.02;70.69
74416;SHT31;62850;42.428;25.618;2023-05-08T14:12:08;17.76;71.97
74416;SHT31;62850;42.428;25.618;2023-05-08T14:14:33;17.69;72.85
74416;SHT31;62850;42.428;25.618;2023-05-08T14:16:59;17.75;73.63
74416;SHT31;62850;42.428;25.618;2023-05-08T14:19:24;17.65;72.97
74416;SHT31;62850;42.428;25.618;2023-05-08T14:21:50;17.75;73.34
74416;SHT31;62850;42.428;25.618;2023-05-08T14:24:16;17.74;72.80
74416;SHT31;62850;42.428;25.618;2023-05-08T14:26:41;17.69;73.91
74416;SHT31;62850;42.428;25.618;2023-05-08T14:29:08;17.85;74.14
74416;SHT31;62850;42.428;25.618;2023-05-08T14:31:33;17.82;74.37
74416;SHT31;62850;42.428;25.618;2023-05-08T14:33:59;17.90;74.77
74416;SHT31;62850;42.428;25.618;2023-05-08T14:36:24;18.10;74.73
74416;SHT31;62850;42.428;25.618;2023-05-08T14:38:51;17.99;74.08
74416;SHT31;62850;42.428;25.618;2023-05-08T14:41:17;17.86;75.00
74416;SHT31;62850;42.428;25.618;2023-05-08T14:43:42;17.99;74.13
74416;SHT31;62850;42.428;25.618;2023-05-08T14:46:08;18.07;73.98
74416;SHT31;62850;42.428;25.618;2023-05-08T14:48:33;18.03;74.35
74416;SHT31;62850;42.428;25.618;2023-05-08T14:50:59;18.03;74.54
74416;SHT31;62850;42.428;25.618;2023-05-08T14:53:24;18.17;74.41
74416;SHT31;62850;42.428;25.618;2023-05-08T14:55:50;18.06;73.69
74416;SHT31;62850;42.428;25.618;2023-05-08T14:58:15;18.07;73.73
74416;SHT31;62850;42.428;25.618;2023-05-08T15:00:41;18.27;74.43
74416;SHT31;62850;42.428;25.618;2023-05-08T15:03:06;18.26;74.31
74416;SHT31;62850;42.428;25.618;2023-05-08T15:05:32;18.38;73.83
74416;SHT31;62850;42.428;25.618;2023-05-08T15:07:57;18.48;73.30
74416;SHT31;62850;42.428;25.618;2023-05-08T15:10:23;18.43;72.36
74416;SHT31;62850;42.428;25.618;2023-05-08T15:12:49;18.29;70.63
74416;SHT31;62850;42.428;25.618;2023-05-08T15:15:14;18.14;70.79
74416;SHT31;62850;42.428;25.618;2023-05-08T15:17:40;18.20;70.66
74416;SHT31;62850;42.428;25.618;2023-05-08T15:20:07;18.16;70.25
74416;SHT31;62850;42.428;25.618;2023-05-08T15:22:32;18.03;70.08
74416;SHT31;62850;42.428;25.618;2023-05-08T15:24:58;18.12;69.20
74416;SHT31;62850;42.428;25.618;2023-05-08T15:27:29;18.20;69.26
74416;SHT31;62850;42.428;25.618;2023-05-08T15:29:55;18.26;70.15
74416;SHT31;62850;42.428;25.618;2023-05-08T15:32:20;18.22;70.62
74416;SHT31;62850;42.428;25.618;2023-05-08T15:34:46;18.25;71.02
74416;SHT31;62850;42.428;25.618;2023-05-08T15:37:12;18.27;70.97
74416;SHT31;62850;42.428;25.618;2023-05-08T15:39:37;17.99;70.04
74416;SHT31;62850;42.428;25.618;2023-05-08T15:42:03;18.00;70.72
74416;SHT31;62850;42.428;25.618;2023-05-08T15:44:29;17.88;70.55
74416;SHT31;62850;42.428;25.618;2023-05-08T15:46:55;17.89;70.27
74416;SHT31;62850;42.428;25.618;2023-05-08T15:49:20;17.75;70.51
74416;SHT31;62850;42.428;25.618;2023-05-08T15:51:50;17.65;70.40
74416;SHT31;62850;42.428;25.618;2023-05-08T15:54:16;17.64;70.32
74416;SHT31;62850;42.428;25.618;2023-05-08T15:56:42;17.57;69.88
74416;SHT31;62850;42.428;25.618;2023-05-08T15:59:07;17.48;70.31
74416;SHT31;62850;42.428;25.618;2023-05-08T16:02:01;17.35;70.47
74416;SHT31;62850;42.428;25.618;2023-05-08T16:04:26;17.27;70.40
74416;SHT31;62850;42.428;25.618;2023-05-08T16:06:52;17.32;70.82
74416;SHT31;62850;42.428;25.618;2023-05-08T16:09:17;17.13;70.90
74416;SHT31;62850;42.428;25.618;2023-05-08T16:11:43;17.18;70.70
74416;SHT31;62850;42.428;25.618;2023-05-08T16:14:08;17.16;70.49
74416;SHT31;62850;42.428;25.618;2023-05-08T16:16:34;17.14;69.96